Weather at Sutherland Heliport

Public forecast

Using degrees Fahrenheit for public forecast. Weather courtesy of forecast.io.

Closest aviation weather report (METAR) to Sutherland Heliport

Closest report is Coeur D'Alene - Pappy Boyington Field, 7.7 nm (14.2 km) E. Retrieved 2021/07/27 22:56 UTC (37 minutes ago):

KCOE 272256Z AUTO 26011KT 10SM CLR 28/09 A3006 RMK AO2 RAB32E51 SLP180 P0000 T02780089

Closest aviation forecast (TAF) to Sutherland Heliport

Closest forecast is Coeur D'Alene - Pappy Boyington Field, 7.7 nm (14.2 km) E. Retrieved 2021/07/27 18:30 UTC (5 hours ago):

TAF KCOE 271727Z 2718/2818 18009KT P6SM SCT090 BKN120 BKN200 FM272100 22008KT P6SM BKN120 OVC200 FM280300 15004KT P6SM BKN120 OVC150 FM281200 13006KT P6SM BKN100